sensor_id;sensor_type;location;lat;lon;timestamp;pressure;altitude;pressure_sealevel;temperature;humidity
27294;BME280;14785;52.556;13.430;2023-07-13T00:01:28;100458.63;;;21.01;100.00
27294;BME280;14785;52.556;13.430;2023-07-13T00:03:54;100452.00;;;20.97;100.00
27294;BME280;14785;52.556;13.430;2023-07-13T00:06:20;100447.66;;;21.26;100.00
27294;BME280;14785;52.556;13.430;2023-07-13T00:08:46;100445.13;;;21.01;100.00
27294;BME280;14785;52.556;13.430;2023-07-13T00:11:13;100450.97;;;21.28;100.00
27294;BME280;14785;52.556;13.430;2023-07-13T00:13:40;100458.47;;;20.96;100.00
27294;BME280;14785;52.556;13.430;2023-07-13T00:16:08;100457.50;;;21.09;100.00
27294;BME280;14785;52.556;13.430;2023-07-13T00:18:33;100456.28;;;21.05;100.00
27294;BME280;14785;52.556;13.430;2023-07-13T00:20:59;100460.13;;;20.61;100.00
27294;BME280;14785;52.556;13.430;2023-07-13T00:23:39;100456.38;;;20.80;100.00
27294;BME280;14785;52.556;13.430;2023-07-13T00:26:07;100457.56;;;21.02;100.00
27294;BME280;14785;52.556;13.430;2023-07-13T00:28:33;100455.38;;;21.40;100.00
27294;BME280;14785;52.556;13.430;2023-07-13T00:31:00;100464.75;;;21.79;100.00
27294;BME280;14785;52.556;13.430;2023-07-13T00:33:29;100467.13;;;21.98;100.00
27294;BME280;14785;52.556;13.430;2023-07-13T00:35:55;100473.13;;;21.77;100.00
27294;BME280;14785;52.556;13.430;2023-07-13T00:38:21;100462.28;;;21.07;100.00
27294;BME280;14785;52.556;13.430;2023-07-13T00:40:48;100458.25;;;21.27;100.00
27294;BME280;14785;52.556;13.430;2023-07-13T00:43:18;100454.91;;;21.43;100.00
27294;BME280;14785;52.556;13.430;2023-07-13T00:48:11;100461.38;;;21.13;100.00
27294;BME280;14785;52.556;13.430;2023-07-13T00:50:39;100467.28;;;21.21;100.00
27294;BME280;14785;52.556;13.430;2023-07-13T00:53:06;100465.19;;;21.23;100.00
27294;BME280;14785;52.556;13.430;2023-07-13T00:55:31;100462.66;;;21.51;100.00
27294;BME280;14785;52.556;13.430;2023-07-13T00:57:58;100451.81;;;22.04;100.00
27294;BME280;14785;52.556;13.430;2023-07-13T01:00:25;100452.34;;;21.71;100.00
27294;BME280;14785;52.556;13.430;2023-07-13T01:02:52;100454.03;;;22.18;100.00
27294;BME280;14785;52.556;13.430;2023-07-13T01:05:20;100458.66;;;22.18;100.00
27294;BME280;14785;52.556;13.430;2023-07-13T01:07:47;100460.28;;;21.84;100.00
27294;BME280;14785;52.556;13.430;2023-07-13T01:10:15;100456.28;;;22.21;100.00
27294;BME280;14785;52.556;13.430;2023-07-13T01:12:40;100462.63;;;22.38;100.00
27294;BME280;14785;52.556;13.430;2023-07-13T01:15:33;100475.47;;;22.54;100.00
27294;BME280;14785;52.556;13.430;2023-07-13T01:17:59;100477.44;;;22.71;100.00
27294;BME280;14785;52.556;13.430;2023-07-13T01:20:25;100470.09;;;22.83;100.00
27294;BME280;14785;52.556;13.430;2023-07-13T01:22:50;100476.09;;;22.85;100.00
27294;BME280;14785;52.556;13.430;2023-07-13T01:25:16;100484.41;;;22.67;100.00
27294;BME280;14785;52.556;13.430;2023-07-13T01:27:41;100473.63;;;22.83;100.00
27294;BME280;14785;52.556;13.430;2023-07-13T01:30:07;100473.50;;;22.90;100.00
27294;BME280;14785;52.556;13.430;2023-07-13T01:32:33;100482.91;;;22.99;100.00
27294;BME280;14785;52.556;13.430;2023-07-13T01:34:59;100481.84;;;23.00;100.00
27294;BME280;14785;52.556;13.430;2023-07-13T01:37:26;100468.09;;;22.90;100.00
27294;BME280;14785;52.556;13.430;2023-07-13T01:39:51;100466.41;;;23.00;100.00
27294;BME280;14785;52.556;13.430;2023-07-13T01:42:17;100461.06;;;23.05;100.00
27294;BME280;14785;52.556;13.430;2023-07-13T01:44:42;100464.84;;;23.04;100.00
27294;BME280;14785;52.556;13.430;2023-07-13T01:47:09;100457.59;;;23.10;100.00
27294;BME280;14785;52.556;13.430;2023-07-13T01:49:35;100462.22;;;23.09;100.00
27294;BME280;14785;52.556;13.430;2023-07-13T01:52:00;100463.63;;;23.12;100.00
27294;BME280;14785;52.556;13.430;2023-07-13T01:54:25;100455.97;;;23.09;100.00
27294;BME280;14785;52.556;13.430;2023-07-13T01:56:51;100457.59;;;23.10;100.00
27294;BME280;14785;52.556;13.430;2023-07-13T01:59:16;100460.56;;;23.08;100.00
27294;BME280;14785;52.556;13.430;2023-07-13T02:01:41;100457.53;;;23.05;100.00
27294;BME280;14785;52.556;13.430;2023-07-13T02:04:07;100459.41;;;23.04;100.00
27294;BME280;14785;52.556;13.430;2023-07-13T02:06:32;100463.75;;;22.77;100.00
27294;BME280;14785;52.556;13.430;2023-07-13T02:08:58;100467.19;;;22.73;100.00
27294;BME280;14785;52.556;13.430;2023-07-13T02:11:24;100463.94;;;22.99;100.00
27294;BME280;14785;52.556;13.430;2023-07-13T02:13:50;100471.13;;;21.84;100.00
27294;BME280;14785;52.556;13.430;2023-07-13T02:16:15;100468.19;;;22.20;100.00
27294;BME280;14785;52.556;13.430;2023-07-13T02:18:41;100461.69;;;22.56;100.00
27294;BME280;14785;52.556;13.430;2023-07-13T02:21:07;100466.50;;;22.66;100.00
27294;BME280;14785;52.556;13.430;2023-07-13T02:23:32;100473.44;;;22.73;100.00
27294;BME280;14785;52.556;13.430;2023-07-13T02:25:58;100471.53;;;22.74;100.00
27294;BME280;14785;52.556;13.430;2023-07-13T02:28:24;100472.25;;;22.81;100.00
27294;BME280;14785;52.556;13.430;2023-07-13T02:30:50;100455.81;;;21.78;100.00
27294;BME280;14785;52.556;13.430;2023-07-13T02:33:15;100450.72;;;22.39;100.00
27294;BME280;14785;52.556;13.430;2023-07-13T02:35:41;100455.53;;;22.49;100.00
27294;BME280;14785;52.556;13.430;2023-07-13T02:38:07;100451.44;;;22.46;100.00
27294;BME280;14785;52.556;13.430;2023-07-13T02:40:32;100453.81;;;22.08;100.00
27294;BME280;14785;52.556;13.430;2023-07-13T02:43:02;100444.69;;;22.49;100.00
27294;BME280;14785;52.556;13.430;2023-07-13T02:45:27;100447.44;;;22.37;100.00
27294;BME280;14785;52.556;13.430;2023-07-13T02:47:53;100451.84;;;21.51;100.00
27294;BME280;14785;52.556;13.430;2023-07-13T02:50:18;100451.47;;;20.89;100.00
27294;BME280;14785;52.556;13.430;2023-07-13T02:52:44;100462.38;;;20.64;100.00
27294;BME280;14785;52.556;13.430;2023-07-13T02:55:09;100461.03;;;20.55;100.00
27294;BME280;14785;52.556;13.430;2023-07-13T02:57:35;100467.59;;;20.29;100.00
27294;BME280;14785;52.556;13.430;2023-07-13T03:00:02;100467.75;;;20.10;100.00
27294;BME280;14785;52.556;13.430;2023-07-13T03:02:30;100470.94;;;20.61;100.00
27294;BME280;14785;52.556;13.430;2023-07-13T03:04:56;100480.72;;;20.80;100.00
27294;BME280;14785;52.556;13.430;2023-07-13T03:07:21;100482.06;;;20.35;100.00
27294;BME280;14785;52.556;13.430;2023-07-13T03:09:46;100493.69;;;20.11;100.00
27294;BME280;14785;52.556;13.430;2023-07-13T03:12:12;100488.66;;;19.41;100.00
27294;BME280;14785;52.556;13.430;2023-07-13T03:14:37;100492.59;;;19.69;100.00
27294;BME280;14785;52.556;13.430;2023-07-13T03:17:04;100498.09;;;19.19;100.00
27294;BME280;14785;52.556;13.430;2023-07-13T03:19:29;100495.44;;;19.12;100.00
27294;BME280;14785;52.556;13.430;2023-07-13T03:21:55;100497.84;;;19.89;100.00
27294;BME280;14785;52.556;13.430;2023-07-13T03:24:20;100490.28;;;19.97;100.00
27294;BME280;14785;52.556;13.430;2023-07-13T03:26:45;100495.44;;;19.74;100.00
27294;BME280;14785;52.556;13.430;2023-07-13T03:29:11;100498.78;;;19.08;100.00
27294;BME280;14785;52.556;13.430;2023-07-13T03:31:37;100512.38;;;19.26;100.00
27294;BME280;14785;52.556;13.430;2023-07-13T03:34:03;100504.16;;;19.08;100.00
27294;BME280;14785;52.556;13.430;2023-07-13T03:36:30;100502.88;;;19.17;100.00
27294;BME280;14785;52.556;13.430;2023-07-13T03:38:57;100509.97;;;19.11;100.00
27294;BME280;14785;52.556;13.430;2023-07-13T03:41:24;100516.22;;;18.98;100.00
27294;BME280;14785;52.556;13.430;2023-07-13T03:43:51;100515.00;;;19.70;100.00
27294;BME280;14785;52.556;13.430;2023-07-13T03:46:17;100510.84;;;19.74;100.00
27294;BME280;14785;52.556;13.430;2023-07-13T03:48:44;100514.00;;;19.40;100.00
27294;BME280;14785;52.556;13.430;2023-07-13T03:51:10;100523.38;;;19.31;100.00
27294;BME280;14785;52.556;13.430;2023-07-13T03:53:38;100523.97;;;19.33;100.00
27294;BME280;14785;52.556;13.430;2023-07-13T03:56:04;100518.72;;;18.93;100.00
27294;BME280;14785;52.556;13.430;2023-07-13T04:00:59;100515.53;;;18.65;100.00
27294;BME280;14785;52.556;13.430;2023-07-13T04:03:27;100523.41;;;18.60;100.00
27294;BME280;14785;52.556;13.430;2023-07-13T04:05:56;100519.28;;;18.51;100.00
27294;BME280;14785;52.556;13.430;2023-07-13T04:08:34;100531.75;;;18.52;100.00
27294;BME280;14785;52.556;13.430;2023-07-13T04:11:00;100529.22;;;18.57;100.00
27294;BME280;14785;52.556;13.430;2023-07-13T04:13:26;100527.34;;;18.64;100.00
27294;BME280;14785;52.556;13.430;2023-07-13T04:15:52;100530.66;;;18.66;100.00
27294;BME280;14785;52.556;13.430;2023-07-13T04:18:19;100536.66;;;18.68;100.00
27294;BME280;14785;52.556;13.430;2023-07-13T04:20:48;100529.28;;;19.02;100.00
27294;BME280;14785;52.556;13.430;2023-07-13T04:23:15;100527.66;;;19.01;100.00
27294;BME280;14785;52.556;13.430;2023-07-13T04:25:46;100535.19;;;18.79;100.00
27294;BME280;14785;52.556;13.430;2023-07-13T04:28:15;100530.25;;;19.20;100.00
27294;BME280;14785;52.556;13.430;2023-07-13T04:30:40;100525.91;;;19.57;100.00
27294;BME280;14785;52.556;13.430;2023-07-13T04:33:05;100522.94;;;19.65;100.00
27294;BME280;14785;52.556;13.430;2023-07-13T04:35:31;100530.81;;;19.66;100.00
27294;BME280;14785;52.556;13.430;2023-07-13T04:37:56;100533.22;;;19.50;100.00
27294;BME280;14785;52.556;13.430;2023-07-13T04:40:22;100536.66;;;19.63;100.00
27294;BME280;14785;52.556;13.430;2023-07-13T04:42:47;100539.34;;;19.26;100.00
27294;BME280;14785;52.556;13.430;2023-07-13T04:45:14;100531.34;;;19.50;100.00
27294;BME280;14785;52.556;13.430;2023-07-13T04:47:40;100547.03;;;19.60;100.00
27294;BME280;14785;52.556;13.430;2023-07-13T04:50:07;100552.34;;;19.73;100.00
27294;BME280;14785;52.556;13.430;2023-07-13T04:52:33;100557.50;;;19.50;100.00
27294;BME280;14785;52.556;13.430;2023-07-13T04:54:59;100548.19;;;19.46;100.00
27294;BME280;14785;52.556;13.430;2023-07-13T04:57:25;100544.09;;;19.24;100.00
27294;BME280;14785;52.556;13.430;2023-07-13T04:59:50;100548.09;;;19.28;100.00
27294;BME280;14785;52.556;13.430;2023-07-13T05:02:15;100553.47;;;19.21;100.00
27294;BME280;14785;52.556;13.430;2023-07-13T05:04:41;100555.03;;;19.42;100.00
27294;BME280;14785;52.556;13.430;2023-07-13T05:07:06;100553.75;;;19.51;100.00
27294;BME280;14785;52.556;13.430;2023-07-13T05:09:32;100558.00;;;19.34;100.00
27294;BME280;14785;52.556;13.430;2023-07-13T05:11:57;100560.78;;;19.52;100.00
27294;BME280;14785;52.556;13.430;2023-07-13T05:14:23;100556.34;;;19.33;100.00
27294;BME280;14785;52.556;13.430;2023-07-13T05:16:48;100558.00;;;19.96;100.00
27294;BME280;14785;52.556;13.430;2023-07-13T05:19:14;100565.41;;;19.45;100.00
27294;BME280;14785;52.556;13.430;2023-07-13T05:21:39;100565.59;;;19.50;100.00
27294;BME280;14785;52.556;13.430;2023-07-13T05:24:06;100570.78;;;19.45;100.00
27294;BME280;14785;52.556;13.430;2023-07-13T05:26:31;100569.66;;;19.28;100.00
27294;BME280;14785;52.556;13.430;2023-07-13T05:28:57;100579.44;;;19.60;100.00
27294;BME280;14785;52.556;13.430;2023-07-13T05:31:22;100581.16;;;19.48;100.00
27294;BME280;14785;52.556;13.430;2023-07-13T05:33:47;100568.16;;;20.00;100.00
27294;BME280;14785;52.556;13.430;2023-07-13T05:36:13;100576.63;;;20.35;100.00
27294;BME280;14785;52.556;13.430;2023-07-13T05:38:39;100578.59;;;20.21;100.00
27294;BME280;14785;52.556;13.430;2023-07-13T05:41:05;100574.22;;;20.45;100.00
27294;BME280;14785;52.556;13.430;2023-07-13T05:43:30;100582.25;;;20.33;100.00
27294;BME280;14785;52.556;13.430;2023-07-13T05:45:56;100584.19;;;20.87;100.00
27294;BME280;14785;52.556;13.430;2023-07-13T05:48:22;100580.53;;;20.39;100.00
27294;BME280;14785;52.556;13.430;2023-07-13T05:50:48;100577.91;;;20.32;100.00
27294;BME280;14785;52.556;13.430;2023-07-13T05:53:14;100583.47;;;20.13;100.00
27294;BME280;14785;52.556;13.430;2023-07-13T05:55:43;100584.84;;;20.22;100.00
27294;BME280;14785;52.556;13.430;2023-07-13T05:58:10;100592.78;;;20.59;100.00
27294;BME280;14785;52.556;13.430;2023-07-13T06:00:36;100590.00;;;20.48;100.00
27294;BME280;14785;52.556;13.430;2023-07-13T06:03:01;100587.53;;;21.07;100.00
27294;BME280;14785;52.556;13.430;2023-07-13T06:05:27;100587.97;;;21.22;100.00
27294;BME280;14785;52.556;13.430;2023-07-13T06:07:54;100585.16;;;20.32;100.00
27294;BME280;14785;52.556;13.430;2023-07-13T06:10:19;100590.44;;;20.45;100.00
27294;BME280;14785;52.556;13.430;2023-07-13T06:12:45;100582.47;;;20.93;100.00
27294;BME280;14785;52.556;13.430;2023-07-13T06:15:11;100598.84;;;20.37;100.00
27294;BME280;14785;52.556;13.430;2023-07-13T06:17:37;100593.97;;;21.06;100.00
27294;BME280;14785;52.556;13.430;2023-07-13T06:20:03;100581.22;;;21.13;100.00
27294;BME280;14785;52.556;13.430;2023-07-13T06:22:28;100582.03;;;21.14;100.00
27294;BME280;14785;52.556;13.430;2023-07-13T06:24:53;100575.50;;;21.21;100.00
27294;BME280;14785;52.556;13.430;2023-07-13T06:27:19;100570.69;;;21.23;100.00
27294;BME280;14785;52.556;13.430;2023-07-13T06:29:44;100579.44;;;21.07;100.00
27294;BME280;14785;52.556;13.430;2023-07-13T06:32:10;100579.09;;;20.97;100.00
27294;BME280;14785;52.556;13.430;2023-07-13T06:34:36;100580.34;;;21.49;100.00
27294;BME280;14785;52.556;13.430;2023-07-13T06:37:01;100580.56;;;21.47;100.00
27294;BME280;14785;52.556;13.430;2023-07-13T06:39:27;100571.56;;;21.94;100.00
27294;BME280;14785;52.556;13.430;2023-07-13T06:41:52;100579.66;;;21.53;100.00
27294;BME280;14785;52.556;13.430;2023-07-13T06:44:17;100595.59;;;20.71;100.00
27294;BME280;14785;52.556;13.430;2023-07-13T06:46:43;100592.50;;;21.28;100.00
27294;BME280;14785;52.556;13.430;2023-07-13T06:49:09;100587.97;;;21.40;100.00
27294;BME280;14785;52.556;13.430;2023-07-13T06:51:34;100585.97;;;21.47;100.00
27294;BME280;14785;52.556;13.430;2023-07-13T06:54:00;100589.69;;;21.64;100.00
27294;BME280;14785;52.556;13.430;2023-07-13T06:56:25;100584.03;;;21.36;100.00
27294;BME280;14785;52.556;13.430;2023-07-13T06:58:51;100573.34;;;22.00;100.00
27294;BME280;14785;52.556;13.430;2023-07-13T07:01:16;100575.88;;;22.36;100.00
27294;BME280;14785;52.556;13.430;2023-07-13T07:03:41;100581.09;;;22.73;100.00
27294;BME280;14785;52.556;13.430;2023-07-13T07:06:17;100572.72;;;22.63;100.00
27294;BME280;14785;52.556;13.430;2023-07-13T07:08:43;100569.59;;;22.13;100.00
27294;BME280;14785;52.556;13.430;2023-07-13T07:11:16;100571.84;;;22.27;100.00
27294;BME280;14785;52.556;13.430;2023-07-13T07:13:41;100571.91;;;22.50;100.00
27294;BME280;14785;52.556;13.430;2023-07-13T07:16:07;100578.38;;;22.49;100.00
27294;BME280;14785;52.556;13.430;2023-07-13T07:18:33;100567.50;;;22.15;100.00
27294;BME280;14785;52.556;13.430;2023-07-13T07:20:58;100569.97;;;22.16;100.00
27294;BME280;14785;52.556;13.430;2023-07-13T07:23:24;100580.72;;;22.69;100.00
27294;BME280;14785;52.556;13.430;2023-07-13T07:25:49;100578.97;;;22.51;100.00
27294;BME280;14785;52.556;13.430;2023-07-13T07:28:16;100580.69;;;22.92;100.00
27294;BME280;14785;52.556;13.430;2023-07-13T07:30:43;100592.69;;;23.19;100.00
27294;BME280;14785;52.556;13.430;2023-07-13T07:33:08;100587.38;;;23.13;100.00
27294;BME280;14785;52.556;13.430;2023-07-13T07:35:34;100594.50;;;22.68;100.00
27294;BME280;14785;52.556;13.430;2023-07-13T07:37:59;100597.06;;;22.39;100.00
27294;BME280;14785;52.556;13.430;2023-07-13T07:40:25;100593.09;;;22.77;100.00
27294;BME280;14785;52.556;13.430;2023-07-13T07:42:51;100598.06;;;22.68;100.00
27294;BME280;14785;52.556;13.430;2023-07-13T07:45:16;100596.91;;;22.52;100.00
27294;BME280;14785;52.556;13.430;2023-07-13T07:47:42;100589.34;;;22.54;100.00
27294;BME280;14785;52.556;13.430;2023-07-13T07:50:07;100588.81;;;23.04;100.00
27294;BME280;14785;52.556;13.430;2023-07-13T07:52:34;100600.38;;;23.11;100.00
27294;BME280;14785;52.556;13.430;2023-07-13T07:55:00;100598.22;;;23.36;100.00
27294;BME280;14785;52.556;13.430;2023-07-13T07:57:25;100602.31;;;23.38;100.00
27294;BME280;14785;52.556;13.430;2023-07-13T07:59:51;100592.97;;;23.06;100.00
27294;BME280;14785;52.556;13.430;2023-07-13T08:02:16;100601.03;;;23.41;100.00
27294;BME280;14785;52.556;13.430;2023-07-13T08:04:41;100610.13;;;23.23;100.00
27294;BME280;14785;52.556;13.430;2023-07-13T08:07:07;100608.47;;;23.34;100.00
27294;BME280;14785;52.556;13.430;2023-07-13T08:09:33;100600.59;;;23.21;100.00
27294;BME280;14785;52.556;13.430;2023-07-13T08:11:58;100603.25;;;22.93;100.00
27294;BME280;14785;52.556;13.430;2023-07-13T08:14:24;100621.88;;;22.78;100.00
27294;BME280;14785;52.556;13.430;2023-07-13T08:16:49;100606.44;;;22.67;100.00
27294;BME280;14785;52.556;13.430;2023-07-13T08:19:15;100604.41;;;22.97;100.00
27294;BME280;14785;52.556;13.430;2023-07-13T08:21:40;100608.19;;;22.96;100.00
27294;BME280;14785;52.556;13.430;2023-07-13T08:24:07;100596.97;;;23.55;100.00
27294;BME280;14785;52.556;13.430;2023-07-13T08:26:32;100613.91;;;23.45;100.00
27294;BME280;14785;52.556;13.430;2023-07-13T08:28:58;100609.25;;;23.46;100.00
27294;BME280;14785;52.556;13.430;2023-07-13T08:31:23;100619.84;;;23.08;100.00
27294;BME280;14785;52.556;13.430;2023-07-13T08:33:48;100630.84;;;22.67;100.00
27294;BME280;14785;52.556;13.430;2023-07-13T08:36:14;100617.84;;;22.92;100.00
27294;BME280;14785;52.556;13.430;2023-07-13T08:38:39;100617.13;;;23.08;100.00
27294;BME280;14785;52.556;13.430;2023-07-13T08:41:17;100639.06;;;22.95;100.00
27294;BME280;14785;52.556;13.430;2023-07-13T08:43:46;100618.50;;;23.73;100.00
27294;BME280;14785;52.556;13.430;2023-07-13T08:46:40;100626.22;;;23.64;100.00
27294;BME280;14785;52.556;13.430;2023-07-13T08:49:15;100630.44;;;23.32;100.00
27294;BME280;14785;52.556;13.430;2023-07-13T08:54:16;100624.78;;;23.62;100.00
27294;BME280;14785;52.556;13.430;2023-07-13T08:56:45;100611.91;;;23.97;100.00
27294;BME280;14785;52.556;13.430;2023-07-13T08:59:15;100624.81;;;23.11;100.00
27294;BME280;14785;52.556;13.430;2023-07-13T09:04:25;100619.03;;;23.58;100.00
27294;BME280;14785;52.556;13.430;2023-07-13T09:07:14;100626.78;;;23.27;100.00
27294;BME280;14785;52.556;13.430;2023-07-13T09:10:02;100636.69;;;23.33;100.00
27294;BME280;14785;52.556;13.430;2023-07-13T09:15:33;100622.94;;;24.07;100.00
27294;BME280;14785;52.556;13.430;2023-07-13T09:20:50;100633.13;;;23.44;100.00
27294;BME280;14785;52.556;13.430;2023-07-13T09:23:21;100617.94;;;23.87;100.00
27294;BME280;14785;52.556;13.430;2023-07-13T09:25:49;100632.75;;;23.52;100.00
27294;BME280;14785;52.556;13.430;2023-07-13T09:28:28;100619.16;;;23.80;100.00
27294;BME280;14785;52.556;13.430;2023-07-13T09:31:00;100626.16;;;23.76;100.00
27294;BME280;14785;52.556;13.430;2023-07-13T09:33:26;100627.31;;;23.80;100.00
27294;BME280;14785;52.556;13.430;2023-07-13T09:35:57;100629.72;;;23.65;100.00
27294;BME280;14785;52.556;13.430;2023-07-13T09:38:28;100623.53;;;23.81;100.00
27294;BME280;14785;52.556;13.430;2023-07-13T09:41:04;100616.78;;;24.45;100.00
27294;BME280;14785;52.556;13.430;2023-07-13T09:43:34;100627.44;;;24.79;100.00
27294;BME280;14785;52.556;13.430;2023-07-13T09:46:00;100617.72;;;24.50;100.00
27294;BME280;14785;52.556;13.430;2023-07-13T09:48:34;100620.75;;;24.70;100.00
27294;BME280;14785;52.556;13.430;2023-07-13T09:51:07;100622.22;;;24.61;100.00
27294;BME280;14785;52.556;13.430;2023-07-13T09:53:41;100631.66;;;24.70;100.00
27294;BME280;14785;52.556;13.430;2023-07-13T09:56:22;100623.81;;;24.57;100.00
27294;BME280;14785;52.556;13.430;2023-07-13T09:58:47;100631.22;;;24.62;100.00
27294;BME280;14785;52.556;13.430;2023-07-13T10:01:13;100634.50;;;24.14;100.00
27294;BME280;14785;52.556;13.430;2023-07-13T10:03:52;100624.78;;;24.34;100.00
27294;BME280;14785;52.556;13.430;2023-07-13T10:06:21;100624.63;;;24.74;100.00
27294;BME280;14785;52.556;13.430;2023-07-13T10:08:49;100615.63;;;24.90;100.00
27294;BME280;14785;52.556;13.430;2023-07-13T10:13:52;100623.09;;;25.59;100.00
27294;BME280;14785;52.556;13.430;2023-07-13T10:16:21;100605.59;;;25.12;100.00
27294;BME280;14785;52.556;13.430;2023-07-13T10:18:55;100613.94;;;25.27;100.00
27294;BME280;14785;52.556;13.430;2023-07-13T10:21:22;100608.78;;;25.47;100.00
27294;BME280;14785;52.556;13.430;2023-07-13T10:24:02;100613.25;;;25.85;100.00
27294;BME280;14785;52.556;13.430;2023-07-13T10:26:33;100620.41;;;25.64;100.00
27294;BME280;14785;52.556;13.430;2023-07-13T10:29:04;100622.72;;;25.77;100.00
27294;BME280;14785;52.556;13.430;2023-07-13T10:31:32;100624.78;;;24.51;100.00
27294;BME280;14785;52.556;13.430;2023-07-13T10:33:59;100637.44;;;23.96;100.00
27294;BME280;14785;52.556;13.430;2023-07-13T10:38:55;100628.09;;;24.53;100.00
27294;BME280;14785;52.556;13.430;2023-07-13T10:41:24;100633.31;;;24.10;100.00
27294;BME280;14785;52.556;13.430;2023-07-13T10:43:53;100625.47;;;24.75;100.00
27294;BME280;14785;52.556;13.430;2023-07-13T10:46:23;100624.56;;;25.07;100.00
27294;BME280;14785;52.556;13.430;2023-07-13T10:48:52;100620.78;;;25.08;100.00
27294;BME280;14785;52.556;13.430;2023-07-13T10:51:19;100636.31;;;24.58;97.70
27294;BME280;14785;52.556;13.430;2023-07-13T10:53:46;100633.78;;;24.18;100.00
27294;BME280;14785;52.556;13.430;2023-07-13T10:56:36;100625.22;;;24.76;100.00
27294;BME280;14785;52.556;13.430;2023-07-13T10:59:09;100611.69;;;25.03;100.00
27294;BME280;14785;52.556;13.430;2023-07-13T11:01:50;100603.97;;;25.54;100.00
27294;BME280;14785;52.556;13.430;2023-07-13T11:04:19;100606.72;;;25.16;100.00
27294;BME280;14785;52.556;13.430;2023-07-13T11:06:47;100607.00;;;24.77;100.00
27294;BME280;14785;52.556;13.430;2023-07-13T11:12:07;100619.34;;;24.84;100.00
27294;BME280;14785;52.556;13.430;2023-07-13T11:14:38;100615.78;;;25.91;100.00
27294;BME280;14785;52.556;13.430;2023-07-13T11:17:49;100613.66;;;25.07;100.00
27294;BME280;14785;52.556;13.430;2023-07-13T11:25:31;100612.50;;;25.89;86.87
27294;BME280;14785;52.556;13.430;2023-07-13T11:30:39;100616.53;;;26.08;91.20
27294;BME280;14785;52.556;13.430;2023-07-13T11:33:24;100633.78;;;25.92;91.68
27294;BME280;14785;52.556;13.430;2023-07-13T11:39:15;100618.56;;;25.96;92.36
27294;BME280;14785;52.556;13.430;2023-07-13T11:41:57;100612.13;;;25.54;86.97
27294;BME280;14785;52.556;13.430;2023-07-13T11:44:25;100613.22;;;25.80;78.74
27294;BME280;14785;52.556;13.430;2023-07-13T11:46:54;100611.06;;;26.72;79.09
27294;BME280;14785;52.556;13.430;2023-07-13T11:49:22;100632.47;;;25.95;76.61
27294;BME280;14785;52.556;13.430;2023-07-13T11:51:48;100617.22;;;26.26;75.11
27294;BME280;14785;52.556;13.430;2023-07-13T11:54:46;100587.22;;;26.21;78.42
27294;BME280;14785;52.556;13.430;2023-07-13T11:57:36;100616.22;;;25.78;80.30
27294;BME280;14785;52.556;13.430;2023-07-13T12:00:12;100602.97;;;26.50;80.20
27294;BME280;14785;52.556;13.430;2023-07-13T12:02:43;100609.94;;;26.36;79.29
27294;BME280;14785;52.556;13.430;2023-07-13T12:05:14;100594.47;;;26.42;82.10
27294;BME280;14785;52.556;13.430;2023-07-13T12:07:41;100629.47;;;27.33;80.41
27294;BME280;14785;52.556;13.430;2023-07-13T12:13:04;100602.69;;;25.88;84.12
27294;BME280;14785;52.556;13.430;2023-07-13T12:15:45;100619.94;;;26.94;75.95
27294;BME280;14785;52.556;13.430;2023-07-13T12:18:17;100629.91;;;26.73;71.67
27294;BME280;14785;52.556;13.430;2023-07-13T12:20:44;100610.78;;;27.15;73.64
27294;BME280;14785;52.556;13.430;2023-07-13T12:23:34;100620.75;;;26.58;72.10
27294;BME280;14785;52.556;13.430;2023-07-13T12:26:05;100617.78;;;27.01;72.94
27294;BME280;14785;52.556;13.430;2023-07-13T12:28:44;100608.72;;;26.90;75.10
27294;BME280;14785;52.556;13.430;2023-07-13T12:31:42;100609.94;;;27.76;73.65
27294;BME280;14785;52.556;13.430;2023-07-13T12:34:18;100627.31;;;26.93;76.07
27294;BME280;14785;52.556;13.430;2023-07-13T12:36:58;100628.47;;;25.33;83.94
27294;BME280;14785;52.556;13.430;2023-07-13T12:39:37;100628.53;;;25.59;77.48
27294;BME280;14785;52.556;13.430;2023-07-13T12:42:25;100617.16;;;26.16;78.14
27294;BME280;14785;52.556;13.430;2023-07-13T12:47:50;100600.53;;;25.90;77.09
27294;BME280;14785;52.556;13.430;2023-07-13T12:50:23;100610.13;;;25.71;75.30
27294;BME280;14785;52.556;13.430;2023-07-13T12:53:02;100614.47;;;26.57;72.18
27294;BME280;14785;52.556;13.430;2023-07-13T12:55:41;100622.03;;;26.45;71.34
27294;BME280;14785;52.556;13.430;2023-07-13T12:58:09;100603.72;;;27.24;69.76
27294;BME280;14785;52.556;13.430;2023-07-13T13:00:48;100602.72;;;26.20;69.75
27294;BME280;14785;52.556;13.430;2023-07-13T13:03:33;100593.47;;;25.94;68.34
27294;BME280;14785;52.556;13.430;2023-07-13T13:06:06;100608.88;;;26.05;68.85
27294;BME280;14785;52.556;13.430;2023-07-13T13:08:47;100596.88;;;26.06;71.69
27294;BME280;14785;52.556;13.430;2023-07-13T13:11:17;100622.78;;;25.82;72.82
27294;BME280;14785;52.556;13.430;2023-07-13T13:13:43;100597.63;;;27.07;70.37
27294;BME280;14785;52.556;13.430;2023-07-13T13:16:14;100626.81;;;27.48;67.95
27294;BME280;14785;52.556;13.430;2023-07-13T13:18:42;100605.53;;;26.30;73.50